sensor_id;sensor_type;location;lat;lon;timestamp;temperature;humidity
19224;DHT22;9746;47.180;9.776;2022-11-15T08:43:44;8.80;99.90
19224;DHT22;9746;47.180;9.776;2022-11-15T08:46:13;9.20;99.90
19224;DHT22;9746;47.180;9.776;2022-11-15T08:48:40;9.40;99.90
19224;DHT22;9746;47.180;9.776;2022-11-15T08:51:08;9.60;99.90
19224;DHT22;9746;47.180;9.776;2022-11-15T08:53:35;9.90;99.90
19224;DHT22;9746;47.180;9.776;2022-11-15T08:56:03;10.10;99.90
19224;DHT22;9746;47.180;9.776;2022-11-15T08:58:33;10.20;99.90
19224;DHT22;9746;47.180;9.776;2022-11-15T09:01:03;10.30;99.90
19224;DHT22;9746;47.180;9.776;2022-11-15T09:03:32;10.50;99.90
19224;DHT22;9746;47.180;9.776;2022-11-15T09:06:00;10.60;99.90
19224;DHT22;9746;47.180;9.776;2022-11-15T09:08:30;10.80;99.90
19224;DHT22;9746;47.180;9.776;2022-11-15T09:10:58;10.90;99.90
19224;DHT22;9746;47.180;9.776;2022-11-15T09:13:25;11.40;99.90
19224;DHT22;9746;47.180;9.776;2022-11-15T09:15:52;11.70;99.90
19224;DHT22;9746;47.180;9.776;2022-11-15T09:18:21;11.90;99.90
19224;DHT22;9746;47.180;9.776;2022-11-15T09:20:48;12.20;99.90
19224;DHT22;9746;47.180;9.776;2022-11-15T09:23:16;12.50;99.90
19224;DHT22;9746;47.180;9.776;2022-11-15T09:25:43;12.50;99.90
19224;DHT22;9746;47.180;9.776;2022-11-15T09:28:11;12.60;99.90
19224;DHT22;9746;47.180;9.776;2022-11-15T09:30:38;12.90;99.90
19224;DHT22;9746;47.180;9.776;2022-11-15T09:33:09;13.20;99.90
19224;DHT22;9746;47.180;9.776;2022-11-15T09:35:38;13.60;99.90
19224;DHT22;9746;47.180;9.776;2022-11-15T09:38:06;13.90;99.90
19224;DHT22;9746;47.180;9.776;2022-11-15T09:40:36;14.20;99.90
19224;DHT22;9746;47.180;9.776;2022-11-15T09:43:18;14.40;99.90
19224;DHT22;9746;47.180;9.776;2022-11-15T09:45:59;14.80;99.90
19224;DHT22;9746;47.180;9.776;2022-11-15T09:48:50;15.30;99.90
19224;DHT22;9746;47.180;9.776;2022-11-15T09:51:26;15.60;99.90
19224;DHT22;9746;47.180;9.776;2022-11-15T09:54:00;15.80;99.90
19224;DHT22;9746;47.180;9.776;2022-11-15T09:56:31;16.10;99.90
19224;DHT22;9746;47.180;9.776;2022-11-15T09:59:19;16.40;99.90
19224;DHT22;9746;47.180;9.776;2022-11-15T10:01:54;16.60;99.90
19224;DHT22;9746;47.180;9.776;2022-11-15T10:04:24;16.70;99.90
19224;DHT22;9746;47.180;9.776;2022-11-15T10:06:57;17.00;99.90
19224;DHT22;9746;47.180;9.776;2022-11-15T10:09:31;17.10;99.90
19224;DHT22;9746;47.180;9.776;2022-11-15T10:12:00;17.20;99.90
19224;DHT22;9746;47.180;9.776;2022-11-15T10:14:30;17.20;99.90
19224;DHT22;9746;47.180;9.776;2022-11-15T10:17:23;17.30;99.90
19224;DHT22;9746;47.180;9.776;2022-11-15T10:20:02;17.70;99.90
19224;DHT22;9746;47.180;9.776;2022-11-15T10:22:39;17.80;99.90
19224;DHT22;9746;47.180;9.776;2022-11-15T10:25:19;18.10;99.90
19224;DHT22;9746;47.180;9.776;2022-11-15T10:27:57;18.30;99.90
19224;DHT22;9746;47.180;9.776;2022-11-15T10:30:31;18.70;99.90
19224;DHT22;9746;47.180;9.776;2022-11-15T10:33:08;19.00;99.90
19224;DHT22;9746;47.180;9.776;2022-11-15T10:35:42;19.30;99.90
19224;DHT22;9746;47.180;9.776;2022-11-15T10:38:11;19.30;99.90
19224;DHT22;9746;47.180;9.776;2022-11-15T10:40:40;19.20;99.90
19224;DHT22;9746;47.180;9.776;2022-11-15T10:43:16;19.00;99.90
19224;DHT22;9746;47.180;9.776;2022-11-15T10:45:44;19.00;99.90
19224;DHT22;9746;47.180;9.776;2022-11-15T10:48:24;19.00;99.90
19224;DHT22;9746;47.180;9.776;2022-11-15T10:50:53;18.80;99.90
19224;DHT22;9746;47.180;9.776;2022-11-15T10:53:28;18.80;99.90
19224;DHT22;9746;47.180;9.776;2022-11-15T10:56:01;18.80;99.90
19224;DHT22;9746;47.180;9.776;2022-11-15T10:58:38;19.00;99.90
19224;DHT22;9746;47.180;9.776;2022-11-15T11:01:11;19.10;99.90
19224;DHT22;9746;47.180;9.776;2022-11-15T11:03:40;18.90;99.90
19224;DHT22;9746;47.180;9.776;2022-11-15T11:06:12;18.60;99.90
19224;DHT22;9746;47.180;9.776;2022-11-15T11:08:54;18.00;99.90
19224;DHT22;9746;47.180;9.776;2022-11-15T11:11:22;17.50;99.90
19224;DHT22;9746;47.180;9.776;2022-11-15T11:13:51;17.20;99.90
19224;DHT22;9746;47.180;9.776;2022-11-15T11:16:43;17.10;99.90
19224;DHT22;9746;47.180;9.776;2022-11-15T11:19:34;16.90;99.90
19224;DHT22;9746;47.180;9.776;2022-11-15T11:22:09;16.80;99.90
19224;DHT22;9746;47.180;9.776;2022-11-15T11:24:44;17.00;99.90
19224;DHT22;9746;47.180;9.776;2022-11-15T11:27:23;17.20;99.90
19224;DHT22;9746;47.180;9.776;2022-11-15T11:30:11;17.40;99.90
19224;DHT22;9746;47.180;9.776;2022-11-15T11:33:00;17.50;99.90
19224;DHT22;9746;47.180;9.776;2022-11-15T11:35:37;17.50;99.90
19224;DHT22;9746;47.180;9.776;2022-11-15T11:38:20;17.50;99.90
19224;DHT22;9746;47.180;9.776;2022-11-15T11:41:00;17.40;99.90
19224;DHT22;9746;47.180;9.776;2022-11-15T11:43:36;17.30;99.90
19224;DHT22;9746;47.180;9.776;2022-11-15T11:46:16;17.20;99.90
19224;DHT22;9746;47.180;9.776;2022-11-15T11:48:52;17.00;99.90
19224;DHT22;9746;47.180;9.776;2022-11-15T11:51:28;16.50;99.90
19224;DHT22;9746;47.180;9.776;2022-11-15T11:53:59;16.20;99.90
19224;DHT22;9746;47.180;9.776;2022-11-15T11:56:33;16.20;99.90
19224;DHT22;9746;47.180;9.776;2022-11-15T11:59:09;16.10;99.90
19224;DHT22;9746;47.180;9.776;2022-11-15T12:01:42;16.00;99.90
19224;DHT22;9746;47.180;9.776;2022-11-15T12:04:14;16.00;99.90
19224;DHT22;9746;47.180;9.776;2022-11-15T12:06:49;16.00;99.90
19224;DHT22;9746;47.180;9.776;2022-11-15T12:09:27;15.90;99.90
19224;DHT22;9746;47.180;9.776;2022-11-15T12:12:04;15.80;99.90
19224;DHT22;9746;47.180;9.776;2022-11-15T12:14:38;15.70;99.90
19224;DHT22;9746;47.180;9.776;2022-11-15T12:17:09;15.70;99.90
19224;DHT22;9746;47.180;9.776;2022-11-15T12:19:37;15.70;99.90
19224;DHT22;9746;47.180;9.776;2022-11-15T12:22:10;15.70;99.90
19224;DHT22;9746;47.180;9.776;2022-11-15T12:24:41;15.80;99.90
19224;DHT22;9746;47.180;9.776;2022-11-15T12:27:17;15.80;99.90
19224;DHT22;9746;47.180;9.776;2022-11-15T12:29:49;15.90;99.90
19224;DHT22;9746;47.180;9.776;2022-11-15T12:32:25;15.90;99.90
19224;DHT22;9746;47.180;9.776;2022-11-15T12:34:56;15.80;99.90
19224;DHT22;9746;47.180;9.776;2022-11-15T12:37:51;15.80;99.90
19224;DHT22;9746;47.180;9.776;2022-11-15T12:40:33;15.80;99.90
19224;DHT22;9746;47.180;9.776;2022-11-15T12:45:53;15.60;99.90
19224;DHT22;9746;47.180;9.776;2022-11-15T12:48:48;15.50;99.90
19224;DHT22;9746;47.180;9.776;2022-11-15T12:51:19;15.50;99.90
19224;DHT22;9746;47.180;9.776;2022-11-15T12:53:47;15.40;99.90
19224;DHT22;9746;47.180;9.776;2022-11-15T12:56:22;15.40;99.90
19224;DHT22;9746;47.180;9.776;2022-11-15T12:58:54;15.40;99.90
19224;DHT22;9746;47.180;9.776;2022-11-15T13:01:57;15.40;99.90
19224;DHT22;9746;47.180;9.776;2022-11-15T13:04:28;15.40;99.90
19224;DHT22;9746;47.180;9.776;2022-11-15T13:07:03;15.40;99.90
19224;DHT22;9746;47.180;9.776;2022-11-15T13:09:52;15.40;99.90
19224;DHT22;9746;47.180;9.776;2022-11-15T13:12:51;15.40;99.90
19224;DHT22;9746;47.180;9.776;2022-11-15T13:15:54;15.40;99.90
19224;DHT22;9746;47.180;9.776;2022-11-15T13:18:40;15.40;99.90
19224;DHT22;9746;47.180;9.776;2022-11-15T13:21:23;15.30;99.90
19224;DHT22;9746;47.180;9.776;2022-11-15T13:24:16;15.20;99.90
19224;DHT22;9746;47.180;9.776;2022-11-15T13:26:49;15.10;99.90
19224;DHT22;9746;47.180;9.776;2022-11-15T13:29:18;15.10;99.90
19224;DHT22;9746;47.180;9.776;2022-11-15T13:31:48;15.00;99.90
19224;DHT22;9746;47.180;9.776;2022-11-15T13:34:25;14.90;99.90
19224;DHT22;9746;47.180;9.776;2022-11-15T13:36:55;14.80;99.90
19224;DHT22;9746;47.180;9.776;2022-11-15T13:39:27;14.70;99.90
19224;DHT22;9746;47.180;9.776;2022-11-15T13:42:15;14.60;99.90
19224;DHT22;9746;47.180;9.776;2022-11-15T13:44:55;14.30;99.90
19224;DHT22;9746;47.180;9.776;2022-11-15T13:47:26;13.90;99.90
19224;DHT22;9746;47.180;9.776;2022-11-15T13:49:57;13.70;99.90
19224;DHT22;9746;47.180;9.776;2022-11-15T13:52:28;13.40;99.90
19224;DHT22;9746;47.180;9.776;2022-11-15T13:55:00;13.20;99.90
19224;DHT22;9746;47.180;9.776;2022-11-15T13:57:41;13.00;99.90
19224;DHT22;9746;47.180;9.776;2022-11-15T14:00:27;12.80;99.90
19224;DHT22;9746;47.180;9.776;2022-11-15T14:03:12;12.70;99.90
19224;DHT22;9746;47.180;9.776;2022-11-15T14:05:43;12.70;99.90
19224;DHT22;9746;47.180;9.776;2022-11-15T14:08:24;12.70;99.90
19224;DHT22;9746;47.180;9.776;2022-11-15T14:11:08;12.70;99.90
19224;DHT22;9746;47.180;9.776;2022-11-15T14:13:36;12.60;99.90
19224;DHT22;9746;47.180;9.776;2022-11-15T14:16:15;12.60;99.90
19224;DHT22;9746;47.180;9.776;2022-11-15T14:18:46;12.60;99.90
19224;DHT22;9746;47.180;9.776;2022-11-15T14:21:14;12.60;99.90
19224;DHT22;9746;47.180;9.776;2022-11-15T14:23:42;12.60;99.90
19224;DHT22;9746;47.180;9.776;2022-11-15T14:26:27;12.60;99.90
19224;DHT22;9746;47.180;9.776;2022-11-15T14:28:56;12.60;99.90
19224;DHT22;9746;47.180;9.776;2022-11-15T14:31:24;12.60;99.90
19224;DHT22;9746;47.180;9.776;2022-11-15T14:33:53;12.60;99.90
19224;DHT22;9746;47.180;9.776;2022-11-15T14:36:22;12.60;99.90
19224;DHT22;9746;47.180;9.776;2022-11-15T14:38:50;12.70;99.90
19224;DHT22;9746;47.180;9.776;2022-11-15T14:41:21;12.60;99.90
19224;DHT22;9746;47.180;9.776;2022-11-15T14:43:49;12.60;99.90
19224;DHT22;9746;47.180;9.776;2022-11-15T14:46:18;12.50;99.90
19224;DHT22;9746;47.180;9.776;2022-11-15T14:48:45;12.50;99.90
19224;DHT22;9746;47.180;9.776;2022-11-15T14:51:19;12.50;99.90
19224;DHT22;9746;47.180;9.776;2022-11-15T14:53:47;12.50;99.90
19224;DHT22;9746;47.180;9.776;2022-11-15T14:56:22;12.40;99.90
19224;DHT22;9746;47.180;9.776;2022-11-15T14:58:49;12.30;99.90
19224;DHT22;9746;47.180;9.776;2022-11-15T15:01:20;12.30;99.90
19224;DHT22;9746;47.180;9.776;2022-11-15T15:03:48;12.20;99.90
19224;DHT22;9746;47.180;9.776;2022-11-15T15:06:19;12.20;99.90
19224;DHT22;9746;47.180;9.776;2022-11-15T15:08:46;12.10;99.90
19224;DHT22;9746;47.180;9.776;2022-11-15T15:11:21;12.00;99.90
19224;DHT22;9746;47.180;9.776;2022-11-15T15:13:49;12.00;99.90
19224;DHT22;9746;47.180;9.776;2022-11-15T15:16:21;12.00;99.90
19224;DHT22;9746;47.180;9.776;2022-11-15T15:18:49;11.90;99.90
19224;DHT22;9746;47.180;9.776;2022-11-15T15:21:22;11.90;99.90
19224;DHT22;9746;47.180;9.776;2022-11-15T15:23:51;11.90;99.90
19224;DHT22;9746;47.180;9.776;2022-11-15T15:26:21;11.90;99.90
19224;DHT22;9746;47.180;9.776;2022-11-15T15:28:50;11.80;99.90
19224;DHT22;9746;47.180;9.776;2022-11-15T15:31:19;11.80;99.90
19224;DHT22;9746;47.180;9.776;2022-11-15T15:33:47;11.80;99.90
19224;DHT22;9746;47.180;9.776;2022-11-15T15:36:17;11.80;99.90
19224;DHT22;9746;47.180;9.776;2022-11-15T15:38:47;11.80;99.90
19224;DHT22;9746;47.180;9.776;2022-11-15T15:41:16;11.80;99.90
19224;DHT22;9746;47.180;9.776;2022-11-15T15:43:44;11.80;99.90
19224;DHT22;9746;47.180;9.776;2022-11-15T15:46:20;11.80;99.90
19224;DHT22;9746;47.180;9.776;2022-11-15T15:48:49;11.80;99.90
19224;DHT22;9746;47.180;9.776;2022-11-15T15:51:17;11.70;99.90
19224;DHT22;9746;47.180;9.776;2022-11-15T15:53:46;11.70;99.90
19224;DHT22;9746;47.180;9.776;2022-11-15T15:56:15;11.60;99.90
19224;DHT22;9746;47.180;9.776;2022-11-15T15:58:43;11.60;99.90
19224;DHT22;9746;47.180;9.776;2022-11-15T16:01:17;11.60;99.90
19224;DHT22;9746;47.180;9.776;2022-11-15T16:03:45;11.60;99.90
19224;DHT22;9746;47.180;9.776;2022-11-15T16:06:37;11.60;99.90
19224;DHT22;9746;47.180;9.776;2022-11-15T16:09:11;11.60;99.90
19224;DHT22;9746;47.180;9.776;2022-11-15T16:11:42;11.50;99.90
19224;DHT22;9746;47.180;9.776;2022-11-15T16:14:09;11.40;99.90
19224;DHT22;9746;47.180;9.776;2022-11-15T16:16:38;11.40;99.90
19224;DHT22;9746;47.180;9.776;2022-11-15T16:19:05;11.40;99.90
19224;DHT22;9746;47.180;9.776;2022-11-15T16:21:33;11.40;99.90
19224;DHT22;9746;47.180;9.776;2022-11-15T16:24:01;11.40;99.90
19224;DHT22;9746;47.180;9.776;2022-11-15T16:26:33;11.40;99.90
19224;DHT22;9746;47.180;9.776;2022-11-15T16:29:02;11.30;99.90
19224;DHT22;9746;47.180;9.776;2022-11-15T16:31:39;11.30;99.90
19224;DHT22;9746;47.180;9.776;2022-11-15T16:34:07;11.20;99.90
19224;DHT22;9746;47.180;9.776;2022-11-15T16:36:36;11.10;99.90
19224;DHT22;9746;47.180;9.776;2022-11-15T16:39:04;11.10;99.90
19224;DHT22;9746;47.180;9.776;2022-11-15T16:41:34;11.00;99.90
19224;DHT22;9746;47.180;9.776;2022-11-15T16:44:02;10.90;99.90
19224;DHT22;9746;47.180;9.776;2022-11-15T16:46:33;10.90;99.90
19224;DHT22;9746;47.180;9.776;2022-11-15T16:49:00;10.80;99.90
19224;DHT22;9746;47.180;9.776;2022-11-15T16:51:30;10.80;99.90
19224;DHT22;9746;47.180;9.776;2022-11-15T16:53:57;10.70;99.90
19224;DHT22;9746;47.180;9.776;2022-11-15T16:56:27;10.60;99.90
19224;DHT22;9746;47.180;9.776;2022-11-15T16:58:57;10.60;99.90
19224;DHT22;9746;47.180;9.776;2022-11-15T17:01:26;10.50;99.90
19224;DHT22;9746;47.180;9.776;2022-11-15T17:03:56;10.40;99.90
19224;DHT22;9746;47.180;9.776;2022-11-15T17:06:38;10.40;99.90
19224;DHT22;9746;47.180;9.776;2022-11-15T17:09:10;10.40;99.90
19224;DHT22;9746;47.180;9.776;2022-11-15T17:11:40;10.40;99.90
19224;DHT22;9746;47.180;9.776;2022-11-15T17:14:09;10.40;99.90
19224;DHT22;9746;47.180;9.776;2022-11-15T17:16:37;10.30;99.90
19224;DHT22;9746;47.180;9.776;2022-11-15T17:19:12;10.30;99.90
19224;DHT22;9746;47.180;9.776;2022-11-15T17:21:42;10.30;99.90
19224;DHT22;9746;47.180;9.776;2022-11-15T17:24:09;10.20;99.90
19224;DHT22;9746;47.180;9.776;2022-11-15T17:26:37;10.20;99.90
19224;DHT22;9746;47.180;9.776;2022-11-15T17:29:05;10.20;99.90
19224;DHT22;9746;47.180;9.776;2022-11-15T17:31:36;10.10;99.90
19224;DHT22;9746;47.180;9.776;2022-11-15T17:34:05;10.10;99.90
19224;DHT22;9746;47.180;9.776;2022-11-15T17:36:34;10.00;99.90
19224;DHT22;9746;47.180;9.776;2022-11-15T17:39:02;9.90;99.90
19224;DHT22;9746;47.180;9.776;2022-11-15T17:41:30;9.80;99.90
19224;DHT22;9746;47.180;9.776;2022-11-15T17:43:58;9.80;99.90
19224;DHT22;9746;47.180;9.776;2022-11-15T17:46:28;9.70;99.90
19224;DHT22;9746;47.180;9.776;2022-11-15T17:48:57;9.70;99.90
19224;DHT22;9746;47.180;9.776;2022-11-15T17:51:25;9.70;99.90
19224;DHT22;9746;47.180;9.776;2022-11-15T17:53:54;9.70;99.90
19224;DHT22;9746;47.180;9.776;2022-11-15T17:56:25;9.70;99.90
19224;DHT22;9746;47.180;9.776;2022-11-15T17:58:55;9.70;99.90
19224;DHT22;9746;47.180;9.776;2022-11-15T18:01:24;9.70;99.90
19224;DHT22;9746;47.180;9.776;2022-11-15T18:03:52;9.70;99.90
19224;DHT22;9746;47.180;9.776;2022-11-15T18:06:23;9.70;99.90
19224;DHT22;9746;47.180;9.776;2022-11-15T18:08:52;9.70;99.90
19224;DHT22;9746;47.180;9.776;2022-11-15T18:11:22;9.70;99.90
19224;DHT22;9746;47.180;9.776;2022-11-15T18:13:52;9.70;99.90
19224;DHT22;9746;47.180;9.776;2022-11-15T18:16:21;9.70;99.90
19224;DHT22;9746;47.180;9.776;2022-11-15T18:18:50;9.60;99.90
19224;DHT22;9746;47.180;9.776;2022-11-15T18:21:18;9.60;99.90
19224;DHT22;9746;47.180;9.776;2022-11-15T18:23:51;9.60;99.90
19224;DHT22;9746;47.180;9.776;2022-11-15T18:26:19;9.50;99.90
19224;DHT22;9746;47.180;9.776;2022-11-15T18:28:48;9.50;99.90
19224;DHT22;9746;47.180;9.776;2022-11-15T18:31:17;9.40;99.90
19224;DHT22;9746;47.180;9.776;2022-11-15T18:33:46;9.40;99.90
19224;DHT22;9746;47.180;9.776;2022-11-15T18:36:16;9.40;99.90
19224;DHT22;9746;47.180;9.776;2022-11-15T18:38:43;9.40;99.90
19224;DHT22;9746;47.180;9.776;2022-11-15T18:41:14;9.30;99.90
19224;DHT22;9746;47.180;9.776;2022-11-15T18:43:43;9.30;99.90
19224;DHT22;9746;47.180;9.776;2022-11-15T18:46:12;9.30;99.90
19224;DHT22;9746;47.180;9.776;2022-11-15T18:48:41;9.30;99.90
19224;DHT22;9746;47.180;9.776;2022-11-15T18:51:10;9.30;99.90
19224;DHT22;9746;47.180;9.776;2022-11-15T18:53:40;9.30;99.90
19224;DHT22;9746;47.180;9.776;2022-11-15T18:56:10;9.30;99.90
19224;DHT22;9746;47.180;9.776;2022-11-15T18:58:42;9.30;99.90
19224;DHT22;9746;47.180;9.776;2022-11-15T19:01:11;9.30;99.90
19224;DHT22;9746;47.180;9.776;2022-11-15T19:03:40;9.30;99.90
19224;DHT22;9746;47.180;9.776;2022-11-15T19:06:09;9.20;99.90
19224;DHT22;9746;47.180;9.776;2022-11-15T19:08:38;9.20;99.90
19224;DHT22;9746;47.180;9.776;2022-11-15T19:11:07;9.20;99.90
19224;DHT22;9746;47.180;9.776;2022-11-15T19:13:35;9.20;99.90
19224;DHT22;9746;47.180;9.776;2022-11-15T19:16:04;9.10;99.90
19224;DHT22;9746;47.180;9.776;2022-11-15T19:18:32;9.10;99.90
19224;DHT22;9746;47.180;9.776;2022-11-15T19:21:01;9.10;99.90
19224;DHT22;9746;47.180;9.776;2022-11-15T19:23:32;9.30;99.90
19224;DHT22;9746;47.180;9.776;2022-11-15T19:26:00;9.40;99.90
19224;DHT22;9746;47.180;9.776;2022-11-15T19:28:29;9.50;99.90
19224;DHT22;9746;47.180;9.776;2022-11-15T19:31:05;9.60;99.90
19224;DHT22;9746;47.180;9.776;2022-11-15T19:33:33;9.60;99.90
19224;DHT22;9746;47.180;9.776;2022-11-15T19:36:01;9.50;99.90
19224;DHT22;9746;47.180;9.776;2022-11-15T19:38:30;9.40;99.90
19224;DHT22;9746;47.180;9.776;2022-11-15T19:40:58;9.40;99.90
19224;DHT22;9746;47.180;9.776;2022-11-15T19:43:26;9.20;99.90
19224;DHT22;9746;47.180;9.776;2022-11-15T19:45:55;9.20;99.90
19224;DHT22;9746;47.180;9.776;2022-11-15T19:48:26;9.20;99.90
19224;DHT22;9746;47.180;9.776;2022-11-15T19:50:54;9.10;99.90
19224;DHT22;9746;47.180;9.776;2022-11-15T19:53:22;9.10;99.90
19224;DHT22;9746;47.180;9.776;2022-11-15T19:55:53;9.00;99.90
19224;DHT22;9746;47.180;9.776;2022-11-15T19:58:22;9.20;99.90
19224;DHT22;9746;47.180;9.776;2022-11-15T20:00:50;9.40;99.90
19224;DHT22;9746;47.180;9.776;2022-11-15T20:03:19;9.60;99.90
19224;DHT22;9746;47.180;9.776;2022-11-15T20:05:47;9.70;99.90
19224;DHT22;9746;47.180;9.776;2022-11-15T20:08:15;9.80;99.90
19224;DHT22;9746;47.180;9.776;2022-11-15T20:10:43;9.80;99.90
19224;DHT22;9746;47.180;9.776;2022-11-15T20:13:12;9.80;99.90
19224;DHT22;9746;47.180;9.776;2022-11-15T20:15:42;9.70;99.90
19224;DHT22;9746;47.180;9.776;2022-11-15T20:18:09;9.60;99.90
19224;DHT22;9746;47.180;9.776;2022-11-15T20:20:36;9.60;99.90
19224;DHT22;9746;47.180;9.776;2022-11-15T20:23:05;9.50;99.90
19224;DHT22;9746;47.180;9.776;2022-11-15T20:25:34;9.30;99.90
19224;DHT22;9746;47.180;9.776;2022-11-15T20:28:06;9.20;99.90
19224;DHT22;9746;47.180;9.776;2022-11-15T20:30:36;9.00;99.90
19224;DHT22;9746;47.180;9.776;2022-11-15T20:33:03;9.00;99.90
19224;DHT22;9746;47.180;9.776;2022-11-15T20:35:30;8.90;99.90
19224;DHT22;9746;47.180;9.776;2022-11-15T20:37:58;8.80;99.90
19224;DHT22;9746;47.180;9.776;2022-11-15T20:40:27;8.70;99.90
19224;DHT22;9746;47.180;9.776;2022-11-15T20:42:54;8.60;99.90
19224;DHT22;9746;47.180;9.776;2022-11-15T20:45:21;8.50;99.90
19224;DHT22;9746;47.180;9.776;2022-11-15T20:47:50;8.40;99.90
19224;DHT22;9746;47.180;9.776;2022-11-15T20:50:20;8.40;99.90
19224;DHT22;9746;47.180;9.776;2022-11-15T20:52:48;8.30;99.90
